createdAt,value
2023-01-19T00:04:20.753Z,12.93
2023-01-19T00:06:47.998Z,16.25
2023-01-19T00:09:15.003Z,11.75
2023-01-19T00:11:42.048Z,12.50
2023-01-19T00:14:08.915Z,13.60
2023-01-19T00:16:36.098Z,13.25
2023-01-19T00:19:03.171Z,10.48
2023-01-19T00:21:29.926Z,15.43
2023-01-19T00:23:56.963Z,22.25
2023-01-19T00:31:16.186Z,16.45
2023-01-19T00:33:43.039Z,13.90
2023-01-19T00:36:10.424Z,11.75
2023-01-19T00:38:37.421Z,20.35
2023-01-19T00:45:55.582Z,16.85
2023-01-19T00:53:14.760Z,12.07
2023-01-19T00:55:41.879Z,11.70
2023-01-19T00:58:08.900Z,11.95
2023-01-19T01:00:35.743Z,13.85
2023-01-19T01:12:57.493Z,10.32
2023-01-19T01:15:30.187Z,10.82
2023-01-19T01:27:43.527Z,11.57
2023-01-19T01:30:11.934Z,12.85
2023-01-19T01:32:39.443Z,6.90
2023-01-19T01:47:41.135Z,9.25
2023-01-19T01:50:14.596Z,9.73
2023-01-19T01:53:06.975Z,13.50
2023-01-19T01:55:35.043Z,8.07
2023-01-19T01:58:04.217Z,7.95
2023-01-19T02:00:54.072Z,11.93
2023-01-19T02:05:49.231Z,10.82
2023-01-19T02:16:26.475Z,8.18
2023-01-19T02:18:53.460Z,13.10
2023-01-19T02:21:23.225Z,11.45
2023-01-19T02:23:52.031Z,10.27
2023-01-19T02:28:51.191Z,16.55
2023-01-19T02:31:18.402Z,12.27
2023-01-19T02:33:45.694Z,16.70
2023-01-19T02:38:40.275Z,11.25
2023-01-19T02:41:08.576Z,15.20
2023-01-19T02:43:36.576Z,12.73
2023-01-19T02:46:03.761Z,9.05
2023-01-19T02:48:30.957Z,7.65
2023-01-19T02:51:04.522Z,10.73
2023-01-19T02:53:37.333Z,7.43
2023-01-19T02:58:40.071Z,8.38
2023-01-19T03:06:56.626Z,15.33
2023-01-19T03:09:29.872Z,14.82
2023-01-19T03:14:35.049Z,12.20
2023-01-19T03:17:06.487Z,10.82
2023-01-19T03:19:35.909Z,6.85
2023-01-19T03:22:07.833Z,9.23
2023-01-19T03:27:09.765Z,10.13
2023-01-19T03:29:38.355Z,8.40
2023-01-19T03:32:09.331Z,8.73
2023-01-19T03:34:37.001Z,10.70
2023-01-19T03:37:05.138Z,11.80
2023-01-19T03:39:32.087Z,9.35
2023-01-19T03:42:02.357Z,10.27
2023-01-19T03:46:56.986Z,10.98
2023-01-19T03:49:24.107Z,8.00
2023-01-19T03:51:51.101Z,10.85
2023-01-19T03:54:17.996Z,10.32
2023-01-19T03:56:45.132Z,5.75
2023-01-19T03:59:11.994Z,11.25
2023-01-19T04:01:39.197Z,10.73
2023-01-19T04:04:06.138Z,14.73
2023-01-19T04:06:33.005Z,15.32
2023-01-19T04:08:59.994Z,7.55
2023-01-19T04:11:26.995Z,5.50
2023-01-19T04:13:53.898Z,10.63
2023-01-19T04:16:21.685Z,8.70
2023-01-19T04:18:48.896Z,10.52
2023-01-19T04:21:16.008Z,7.55
2023-01-19T04:23:44.551Z,8.80
2023-01-19T04:26:11.587Z,7.80
2023-01-19T04:28:38.806Z,10.00
2023-01-19T04:31:06.587Z,8.68
2023-01-19T04:33:33.799Z,15.52
2023-01-19T04:36:01.039Z,11.73
2023-01-19T04:38:28.121Z,12.75
2023-01-19T04:40:55.179Z,17.15
2023-01-19T04:45:48.084Z,11.75
2023-01-19T04:48:15.924Z,16.95
2023-01-19T05:00:25.326Z,7.80
2023-01-19T05:02:52.352Z,9.73
2023-01-19T05:05:19.457Z,8.32
2023-01-19T05:15:04.463Z,8.27
2023-01-19T05:17:31.448Z,10.70
2023-01-19T05:19:58.376Z,9.57
2023-01-19T05:27:21.333Z,12.10
2023-01-19T05:29:53.877Z,8.55
2023-01-19T06:09:13.221Z,11.80
2023-01-19T06:11:40.176Z,15.57
2023-01-19T06:14:07.336Z,20.60
2023-01-19T06:18:59.778Z,10.65
2023-01-19T06:21:26.679Z,8.32
2023-01-19T06:26:19.258Z,10.68
2023-01-19T06:28:46.722Z,17.27
2023-01-19T06:31:13.948Z,15.35
2023-01-19T06:33:40.963Z,16.65
2023-01-19T06:36:08.066Z,15.95
2023-01-19T06:38:35.115Z,11.05
2023-01-19T06:41:05.020Z,17.88
2023-01-19T06:43:32.120Z,13.60
2023-01-19T06:48:26.359Z,8.38
2023-01-19T06:50:53.368Z,6.90
2023-01-19T06:55:48.244Z,8.90
2023-01-19T06:58:15.478Z,9.93
2023-01-19T07:03:09.027Z,8.23
2023-01-19T07:05:36.610Z,9.38
2023-01-19T07:11:24.713Z,7.65
2023-01-19T07:25:29.911Z,52.78
2023-01-19T07:40:07.155Z,11.88
2023-01-19T07:42:53.719Z,13.10
2023-01-19T07:45:20.946Z,9.40
2023-01-19T07:47:51.935Z,26.70
2023-01-19T07:58:19.667Z,11.85
2023-01-19T08:00:46.807Z,9.63
2023-01-19T08:03:13.674Z,8.20
2023-01-19T08:05:40.672Z,11.10
2023-01-19T08:08:07.811Z,13.45
2023-01-19T08:13:00.798Z,16.83
2023-01-19T08:15:27.994Z,13.60
2023-01-19T08:22:49.217Z,51.55
2023-01-19T08:27:42.000Z,42.80
2023-01-19T08:30:09.370Z,25.42
2023-01-19T08:35:01.975Z,28.58
2023-01-19T08:37:28.987Z,22.25
2023-01-19T08:39:55.973Z,20.92
2023-01-19T08:42:23.118Z,16.80
2023-01-19T08:44:58.105Z,19.42
2023-01-19T08:47:25.471Z,15.73
2023-01-19T08:49:52.393Z,19.27
2023-01-19T08:52:19.129Z,26.38
2023-01-19T08:59:38.509Z,22.40
2023-01-19T09:04:31.065Z,25.23
2023-01-19T09:06:58.039Z,27.88
2023-01-19T09:09:25.077Z,22.05
2023-01-19T09:11:53.874Z,20.27
2023-01-19T09:14:20.994Z,14.18
2023-01-19T09:19:14.419Z,15.40
2023-01-19T09:21:41.558Z,10.90
2023-01-19T09:29:02.188Z,16.25
2023-01-19T09:31:29.183Z,13.65
2023-01-19T09:33:56.211Z,21.77
2023-01-19T09:36:23.057Z,21.42
2023-01-19T09:38:50.107Z,27.33
2023-01-19T09:41:21.751Z,28.88
2023-01-19T09:43:55.119Z,36.25
2023-01-19T09:46:25.208Z,29.88
2023-01-19T09:51:23.718Z,22.85
2023-01-19T09:53:53.571Z,18.27
2023-01-19T09:56:21.215Z,12.80
2023-01-19T09:58:49.067Z,15.07
2023-01-19T10:01:23.229Z,18.48
2023-01-19T10:03:52.988Z,14.70
2023-01-19T10:06:20.233Z,22.00
2023-01-19T10:09:10.550Z,21.77
2023-01-19T10:11:52.138Z,18.23
2023-01-19T10:14:25.803Z,10.20
2023-01-19T10:17:12.692Z,15.93
2023-01-19T10:19:46.638Z,16.58
2023-01-19T10:22:19.957Z,14.77
2023-01-19T10:29:44.434Z,12.65
2023-01-19T10:37:16.026Z,11.55
2023-01-19T10:39:43.477Z,10.25
2023-01-19T10:42:12.989Z,11.07
2023-01-19T10:44:40.166Z,8.95
2023-01-19T10:47:13.898Z,11.57
2023-01-19T10:49:42.937Z,10.88
2023-01-19T10:52:33.057Z,9.07
2023-01-19T11:00:08.121Z,9.23
2023-01-19T11:02:35.345Z,11.38
2023-01-19T11:05:22.305Z,10.63
2023-01-19T11:07:49.314Z,11.85
2023-01-19T11:10:16.351Z,12.95
2023-01-19T11:15:16.910Z,12.07
2023-01-19T11:17:45.209Z,12.10
2023-01-19T11:22:47.046Z,13.32
2023-01-19T11:27:53.771Z,13.82
2023-01-19T11:30:22.825Z,11.00
2023-01-19T11:32:49.942Z,10.95
2023-01-19T11:35:36.970Z,14.80
2023-01-19T11:38:08.085Z,9.85
2023-01-19T11:40:35.693Z,15.73
2023-01-19T11:43:03.182Z,13.90
2023-01-19T11:55:32.346Z,8.13
2023-01-19T11:57:59.651Z,8.45
2023-01-19T12:00:26.848Z,7.93
2023-01-19T12:07:49.535Z,6.85
2023-01-19T12:10:19.185Z,7.93
2023-01-19T12:15:21.487Z,7.60
2023-01-19T12:20:19.699Z,35.77
2023-01-19T12:25:21.752Z,25.83
2023-01-19T12:27:49.946Z,38.17
2023-01-19T12:30:17.387Z,13.98
2023-01-19T12:35:28.561Z,11.27
2023-01-19T12:40:28.870Z,10.82
2023-01-19T12:45:31.605Z,9.50
2023-01-19T12:47:58.629Z,6.32
2023-01-19T12:50:26.442Z,11.52
2023-01-19T12:53:00.569Z,14.77
2023-01-19T12:55:31.297Z,12.52
2023-01-19T12:57:58.183Z,8.52
2023-01-19T13:00:24.901Z,11.77
2023-01-19T13:02:55.746Z,13.95
2023-01-19T13:05:22.617Z,12.02
2023-01-19T13:10:54.846Z,15.02
2023-01-19T13:13:37.996Z,14.40
2023-01-19T13:16:27.469Z,13.93
2023-01-19T13:21:27.473Z,10.75
2023-01-19T13:26:34.567Z,14.65
2023-01-19T13:31:41.030Z,13.00
2023-01-19T13:34:14.754Z,9.27
2023-01-19T13:36:45.753Z,9.77
2023-01-19T13:39:18.773Z,14.50
2023-01-19T13:54:32.110Z,10.45
2023-01-19T13:56:59.078Z,8.30
2023-01-19T13:59:28.705Z,13.40
2023-01-19T14:02:04.371Z,9.80
2023-01-19T14:07:01.259Z,11.13
2023-01-19T14:09:28.293Z,7.57
2023-01-19T14:17:00.352Z,11.07
2023-01-19T14:27:18.373Z,13.80
2023-01-19T14:29:47.666Z,12.98
2023-01-19T14:32:16.063Z,12.65
2023-01-19T14:34:43.125Z,11.32
2023-01-19T14:37:47.432Z,10.43
2023-01-19T14:40:15.167Z,10.80
2023-01-19T14:47:53.825Z,6.32
2023-01-19T14:50:23.062Z,8.23
2023-01-19T14:55:23.343Z,4.13
2023-01-19T14:57:50.469Z,4.60
2023-01-19T15:00:20.824Z,2.35
2023-01-19T15:02:47.925Z,1.50
2023-01-19T15:05:15.174Z,2.03
2023-01-19T15:07:43.894Z,6.15
2023-01-19T15:12:40.192Z,9.02
2023-01-19T15:15:13.281Z,3.47
2023-01-19T15:17:40.396Z,6.55
2023-01-19T15:20:12.356Z,1.15
2023-01-19T15:22:39.368Z,1.60
2023-01-19T15:27:32.043Z,6.60
2023-01-19T15:29:59.876Z,3.05
2023-01-19T15:49:32.444Z,19.08
2023-01-19T15:51:59.664Z,18.15
2023-01-19T15:54:26.572Z,16.27
2023-01-19T15:56:53.670Z,20.42
2023-01-19T16:01:46.289Z,19.80
2023-01-19T16:04:13.389Z,16.33
2023-01-19T16:09:05.975Z,16.80
2023-01-19T16:11:34.151Z,16.27
2023-01-19T16:16:28.472Z,21.08
2023-01-19T16:18:56.040Z,31.85
2023-01-19T16:23:49.809Z,24.65
2023-01-19T16:28:56.289Z,31.05
2023-01-19T16:31:23.689Z,48.97
2023-01-19T16:38:46.214Z,41.95
2023-01-19T16:46:06.042Z,36.38
2023-01-19T16:48:33.044Z,40.47
2023-01-19T16:51:00.418Z,46.15
2023-01-19T16:53:28.146Z,56.05
2023-01-19T16:58:21.632Z,67.95
2023-01-19T17:00:49.064Z,67.70
2023-01-19T17:05:41.844Z,59.47
2023-01-19T17:08:08.853Z,100.53
2023-01-19T17:16:05.257Z,76.07
2023-01-19T17:18:32.830Z,77.75
2023-01-19T17:23:29.890Z,62.33
2023-01-19T17:25:57.484Z,52.67
2023-01-19T17:28:25.101Z,49.92
2023-01-19T17:30:52.549Z,55.33
2023-01-19T17:33:19.946Z,58.10
2023-01-19T17:35:46.950Z,57.05
2023-01-19T17:40:43.081Z,46.58
2023-01-19T17:43:10.221Z,46.05
2023-01-19T17:48:04.239Z,46.45
2023-01-19T17:50:32.237Z,43.75
2023-01-19T17:57:53.339Z,48.72
2023-01-19T18:00:20.839Z,52.10
2023-01-19T18:02:51.261Z,52.03
2023-01-19T18:05:18.287Z,48.53
2023-01-19T18:07:45.451Z,45.30
2023-01-19T18:10:13.253Z,42.63
2023-01-19T18:12:40.545Z,32.72
2023-01-19T18:15:08.503Z,25.02
2023-01-19T18:17:35.490Z,30.30
2023-01-19T18:20:02.511Z,27.45
2023-01-19T18:22:29.515Z,22.48
2023-01-19T18:24:56.640Z,22.30
2023-01-19T18:27:23.604Z,23.10
2023-01-19T18:32:16.319Z,22.67
2023-01-19T18:34:43.347Z,20.92
2023-01-19T18:37:10.205Z,20.60
2023-01-19T18:39:37.228Z,26.85
2023-01-19T18:42:04.071Z,22.45
2023-01-19T18:44:30.981Z,20.67
2023-01-19T18:46:58.321Z,22.92
2023-01-19T18:49:25.212Z,22.95
2023-01-19T18:56:43.969Z,24.90
2023-01-19T18:59:10.969Z,27.63
2023-01-19T19:01:38.392Z,25.92
2023-01-19T19:04:05.476Z,28.85
2023-01-19T19:08:59.375Z,38.67
2023-01-19T19:11:27.332Z,56.20
2023-01-19T19:16:20.540Z,68.78
2023-01-19T19:18:50.170Z,65.10
2023-01-19T19:26:10.176Z,65.18
2023-01-19T19:28:37.671Z,61.05
2023-01-19T19:31:05.570Z,65.05
2023-01-19T19:33:32.491Z,63.25
2023-01-19T19:45:42.292Z,42.40
2023-01-19T19:48:09.238Z,32.22
2023-01-19T19:50:36.293Z,29.50
2023-01-19T19:53:03.495Z,26.27
2023-01-19T19:55:30.491Z,26.73
2023-01-19T20:05:16.139Z,37.97
2023-01-19T20:17:47.177Z,67.57
2023-01-19T20:32:55.330Z,67.55
2023-01-19T20:35:22.573Z,62.30
2023-01-19T20:42:42.229Z,62.13
2023-01-19T20:47:34.960Z,38.75
2023-01-19T20:50:01.927Z,29.90
2023-01-19T20:52:28.841Z,28.42
2023-01-19T20:54:55.976Z,28.05
2023-01-19T20:57:22.961Z,24.60
2023-01-19T21:09:35.353Z,50.95
2023-01-19T21:12:02.356Z,45.60
2023-01-19T21:29:10.553Z,43.83
2023-01-19T21:31:37.965Z,42.58
2023-01-19T21:34:05.166Z,37.45
2023-01-19T22:42:27.836Z,51.40
2023-01-19T22:44:55.195Z,75.18
2023-01-19T22:47:22.441Z,60.90
2023-01-19T22:49:49.570Z,54.97
2023-01-19T22:52:16.809Z,53.00
2023-01-19T22:54:44.175Z,52.17
2023-01-19T22:57:12.258Z,56.67
2023-01-19T22:59:39.501Z,50.58
2023-01-19T23:02:06.844Z,45.78
2023-01-19T23:04:33.993Z,39.20
2023-01-19T23:24:05.967Z,48.97
2023-01-19T23:26:39.426Z,47.53
2023-01-19T23:29:10.748Z,50.47
2023-01-19T23:31:39.078Z,46.45
2023-01-19T23:34:08.236Z,38.17
2023-01-19T23:43:55.325Z,45.75
2023-01-19T23:46:22.512Z,37.75
2023-01-19T23:48:50.517Z,38.15
2023-01-19T23:53:44.632Z,26.45
2023-01-19T23:56:15.958Z,30.65
